Terminal Aerodrome Forecast
Issued by NWS

Home | Current Version | Previous Version | Text Only | Print | Product List | Glossary On
Versions: 1 2 3 4 5 6 7 8 9 10 11 12 13 14
000
FTUS42 KMLB 311723
TAFSFB
TAF
KSFB 311723Z 3118/0118 17008KT P6SM VCTS SCT020CB SCT160 BKN250
      TEMPO 3119/3122 2SM TSRA BKN025CB BKN040
     FM010000 16005KT P6SM VCSH SCT020 SCT050 BKN150
     FM011400 17005KT P6SM FEW015 SCT150 BKN250=

USA.gov is the U.S. government's official web portal to all federal, state and local government web resources and services.